sensor_id;sensor_type;location;lat;lon;timestamp;pressure;altitude;pressure_sealevel;temperature;humidity
48630;BME280;34426;52.180;4.462;2022-08-01T00:00:09;150544.22;;;18.41;100.00
48630;BME280;34426;52.180;4.462;2022-08-01T00:02:37;150541.69;;;18.39;100.00
48630;BME280;34426;52.180;4.462;2022-08-01T00:05:05;150532.91;;;18.36;100.00
48630;BME280;34426;52.180;4.462;2022-08-01T00:07:33;150534.16;;;18.36;100.00
48630;BME280;34426;52.180;4.462;2022-08-01T00:10:01;150522.91;;;18.32;100.00
48630;BME280;34426;52.180;4.462;2022-08-01T00:12:28;150512.84;;;18.28;100.00
48630;BME280;34426;52.180;4.462;2022-08-01T00:14:55;150520.38;;;18.31;100.00
48630;BME280;34426;52.180;4.462;2022-08-01T00:17:25;150516.63;;;18.29;100.00
48630;BME280;34426;52.180;4.462;2022-08-01T00:19:53;150511.59;;;18.27;100.00
48630;BME280;34426;52.180;4.462;2022-08-01T00:22:20;150504.06;;;18.24;100.00
48630;BME280;34426;52.180;4.462;2022-08-01T00:24:47;150495.31;;;18.20;100.00
48630;BME280;34426;52.180;4.462;2022-08-01T00:27:15;150494.06;;;18.20;100.00
48630;BME280;34426;52.180;4.462;2022-08-01T00:29:42;150481.53;;;18.15;100.00
48630;BME280;34426;52.180;4.462;2022-08-01T00:32:09;150453.94;;;18.04;100.00
48630;BME280;34426;52.180;4.462;2022-08-01T00:34:38;150445.19;;;18.00;100.00
48630;BME280;34426;52.180;4.462;2022-08-01T00:37:06;150431.41;;;17.94;100.00
48630;BME280;34426;52.180;4.462;2022-08-01T00:39:33;150431.41;;;17.94;100.00
48630;BME280;34426;52.180;4.462;2022-08-01T00:42:01;150415.13;;;17.88;100.00
48630;BME280;34426;52.180;4.462;2022-08-01T00:44:33;150405.06;;;17.83;100.00
48630;BME280;34426;52.180;4.462;2022-08-01T00:47:00;150405.06;;;17.83;100.00
48630;BME280;34426;52.180;4.462;2022-08-01T00:49:28;150397.53;;;17.80;100.00
48630;BME280;34426;52.180;4.462;2022-08-01T00:51:57;150393.78;;;17.79;100.00
48630;BME280;34426;52.180;4.462;2022-08-01T00:54:26;150390.00;;;17.77;100.00
48630;BME280;34426;52.180;4.462;2022-08-01T00:56:54;150385.00;;;17.75;100.00
48630;BME280;34426;52.180;4.462;2022-08-01T00:59:22;150391.25;;;17.78;100.00
48630;BME280;34426;52.180;4.462;2022-08-01T01:01:49;150400.00;;;17.81;100.00
48630;BME280;34426;52.180;4.462;2022-08-01T01:04:17;150397.53;;;17.80;100.00
48630;BME280;34426;52.180;4.462;2022-08-01T01:06:48;150392.53;;;17.78;100.00
48630;BME280;34426;52.180;4.462;2022-08-01T01:09:27;150400.00;;;17.81;100.00
48630;BME280;34426;52.180;4.462;2022-08-01T01:12:03;150392.53;;;17.78;100.00
48630;BME280;34426;52.180;4.462;2022-08-01T01:14:37;150397.53;;;17.80;100.00
48630;BME280;34426;52.180;4.462;2022-08-01T01:17:07;150395.00;;;17.79;100.00
48630;BME280;34426;52.180;4.462;2022-08-01T01:19:39;150396.28;;;17.80;100.00
48630;BME280;34426;52.180;4.462;2022-08-01T01:22:21;150397.53;;;17.80;100.00
48630;BME280;34426;52.180;4.462;2022-08-01T01:25:07;150392.53;;;17.78;100.00
48630;BME280;34426;52.180;4.462;2022-08-01T01:27:47;150373.72;;;17.71;100.00
48630;BME280;34426;52.180;4.462;2022-08-01T01:30:19;150380.00;;;17.73;100.00
48630;BME280;34426;52.180;4.462;2022-08-01T01:32:49;150397.53;;;17.80;100.00
48630;BME280;34426;52.180;4.462;2022-08-01T01:35:22;150385.00;;;17.75;100.00
48630;BME280;34426;52.180;4.462;2022-08-01T01:37:54;150387.47;;;17.76;100.00
48630;BME280;34426;52.180;4.462;2022-08-01T01:40:24;150386.25;;;17.76;100.00
48630;BME280;34426;52.180;4.462;2022-08-01T01:42:54;150376.25;;;17.72;100.00
48630;BME280;34426;52.180;4.462;2022-08-01T01:45:25;150402.53;;;17.82;100.00
48630;BME280;34426;52.180;4.462;2022-08-01T01:47:53;150396.28;;;17.80;100.00
48630;BME280;34426;52.180;4.462;2022-08-01T01:50:22;150396.28;;;17.80;100.00
48630;BME280;34426;52.180;4.462;2022-08-01T01:52:50;150417.63;;;17.89;100.00
48630;BME280;34426;52.180;4.462;2022-08-01T01:55:20;150426.41;;;17.92;100.00
48630;BME280;34426;52.180;4.462;2022-08-01T01:57:49;150436.41;;;17.96;100.00
48630;BME280;34426;52.180;4.462;2022-08-01T02:00:17;150432.66;;;17.95;100.00
48630;BME280;34426;52.180;4.462;2022-08-01T02:02:47;150442.69;;;17.99;100.00
48630;BME280;34426;52.180;4.462;2022-08-01T02:05:16;150440.19;;;17.98;100.00
48630;BME280;34426;52.180;4.462;2022-08-01T02:07:44;150431.41;;;17.94;100.00
48630;BME280;34426;52.180;4.462;2022-08-01T02:10:12;150432.66;;;17.95;100.00
48630;BME280;34426;52.180;4.462;2022-08-01T02:12:42;150435.19;;;17.96;100.00
48630;BME280;34426;52.180;4.462;2022-08-01T02:15:10;150431.41;;;17.94;100.00
48630;BME280;34426;52.180;4.462;2022-08-01T02:17:42;150413.88;;;17.87;100.00
48630;BME280;34426;52.180;4.462;2022-08-01T02:20:13;150407.53;;;17.84;100.00
48630;BME280;34426;52.180;4.462;2022-08-01T02:22:44;150391.25;;;17.78;100.00
48630;BME280;34426;52.180;4.462;2022-08-01T02:25:21;150373.72;;;17.71;100.00
48630;BME280;34426;52.180;4.462;2022-08-01T02:27:54;150362.47;;;17.66;100.00
48630;BME280;34426;52.180;4.462;2022-08-01T02:30:25;150343.66;;;17.58;100.00
48630;BME280;34426;52.180;4.462;2022-08-01T02:32:56;150331.13;;;17.53;100.00
48630;BME280;34426;52.180;4.462;2022-08-01T02:35:28;150322.38;;;17.50;100.00
48630;BME280;34426;52.180;4.462;2022-08-01T02:37:57;150309.84;;;17.44;100.00
48630;BME280;34426;52.180;4.462;2022-08-01T02:40:28;150319.84;;;17.49;100.00
48630;BME280;34426;52.180;4.462;2022-08-01T02:42:57;150317.38;;;17.48;100.00
48630;BME280;34426;52.180;4.462;2022-08-01T02:45:27;150311.06;;;17.45;100.00
48630;BME280;34426;52.180;4.462;2022-08-01T02:47:59;150298.53;;;17.40;100.00
48630;BME280;34426;52.180;4.462;2022-08-01T02:50:29;150267.25;;;17.27;100.00
48630;BME280;34426;52.180;4.462;2022-08-01T02:52:58;150260.97;;;17.24;100.00
48630;BME280;34426;52.180;4.462;2022-08-01T02:55:27;150262.25;;;17.25;100.00
48630;BME280;34426;52.180;4.462;2022-08-01T02:57:55;150267.25;;;17.27;100.00
48630;BME280;34426;52.180;4.462;2022-08-01T03:00:24;150301.06;;;17.41;100.00
48630;BME280;34426;52.180;4.462;2022-08-01T03:02:53;150311.06;;;17.45;100.00
48630;BME280;34426;52.180;4.462;2022-08-01T03:05:21;150319.84;;;17.49;100.00
48630;BME280;34426;52.180;4.462;2022-08-01T03:07:52;150344.91;;;17.59;100.00
48630;BME280;34426;52.180;4.462;2022-08-01T03:10:21;150346.19;;;17.59;100.00
48630;BME280;34426;52.180;4.462;2022-08-01T03:12:50;150348.66;;;17.60;100.00
48630;BME280;34426;52.180;4.462;2022-08-01T03:15:18;150348.66;;;17.60;100.00
48630;BME280;34426;52.180;4.462;2022-08-01T03:17:46;150353.66;;;17.62;100.00
48630;BME280;34426;52.180;4.462;2022-08-01T03:20:16;150344.91;;;17.59;100.00
48630;BME280;34426;52.180;4.462;2022-08-01T03:22:44;150347.41;;;17.60;100.00
48630;BME280;34426;52.180;4.462;2022-08-01T03:25:14;150356.19;;;17.63;100.00
48630;BME280;34426;52.180;4.462;2022-08-01T03:27:43;150352.41;;;17.62;100.00
48630;BME280;34426;52.180;4.462;2022-08-01T03:30:13;150339.91;;;17.57;100.00
48630;BME280;34426;52.180;4.462;2022-08-01T03:32:41;150339.91;;;17.57;100.00
48630;BME280;34426;52.180;4.462;2022-08-01T03:35:09;150327.38;;;17.52;100.00
48630;BME280;34426;52.180;4.462;2022-08-01T03:37:40;150313.59;;;17.46;100.00
48630;BME280;34426;52.180;4.462;2022-08-01T03:40:11;150308.59;;;17.44;100.00
48630;BME280;34426;52.180;4.462;2022-08-01T03:42:46;150301.06;;;17.41;100.00
48630;BME280;34426;52.180;4.462;2022-08-01T03:45:20;150297.31;;;17.39;100.00
48630;BME280;34426;52.180;4.462;2022-08-01T03:47:51;150283.53;;;17.34;100.00
48630;BME280;34426;52.180;4.462;2022-08-01T03:50:21;150281.03;;;17.33;100.00
48630;BME280;34426;52.180;4.462;2022-08-01T03:52:50;150279.78;;;17.32;100.00
48630;BME280;34426;52.180;4.462;2022-08-01T03:55:19;150289.78;;;17.36;100.00
48630;BME280;34426;52.180;4.462;2022-08-01T03:57:50;150287.31;;;17.35;100.00
48630;BME280;34426;52.180;4.462;2022-08-01T04:00:18;150307.31;;;17.43;100.00
48630;BME280;34426;52.180;4.462;2022-08-01T04:02:46;150306.06;;;17.43;100.00
48630;BME280;34426;52.180;4.462;2022-08-01T04:05:15;150304.84;;;17.42;100.00
48630;BME280;34426;52.180;4.462;2022-08-01T04:07:46;150307.31;;;17.43;100.00
48630;BME280;34426;52.180;4.462;2022-08-01T04:10:14;150314.84;;;17.46;100.00
48630;BME280;34426;52.180;4.462;2022-08-01T04:12:42;150302.31;;;17.41;100.00
48630;BME280;34426;52.180;4.462;2022-08-01T04:15:11;150306.06;;;17.43;100.00
48630;BME280;34426;52.180;4.462;2022-08-01T04:17:39;150332.38;;;17.54;100.00
48630;BME280;34426;52.180;4.462;2022-08-01T04:20:07;150357.44;;;17.64;100.00
48630;BME280;34426;52.180;4.462;2022-08-01T04:22:35;150353.66;;;17.62;100.00
48630;BME280;34426;52.180;4.462;2022-08-01T04:25:07;150362.47;;;17.66;100.00
48630;BME280;34426;52.180;4.462;2022-08-01T04:27:38;150364.94;;;17.67;100.00
48630;BME280;34426;52.180;4.462;2022-08-01T04:30:10;150377.47;;;17.72;100.00
48630;BME280;34426;52.180;4.462;2022-08-01T04:32:39;150368.72;;;17.69;100.00
48630;BME280;34426;52.180;4.462;2022-08-01T04:35:08;150372.47;;;17.70;100.00
48630;BME280;34426;52.180;4.462;2022-08-01T04:37:39;150367.47;;;17.68;100.00
48630;BME280;34426;52.180;4.462;2022-08-01T04:40:09;150359.94;;;17.65;100.00
48630;BME280;34426;52.180;4.462;2022-08-01T04:42:37;150348.66;;;17.60;100.00
48630;BME280;34426;52.180;4.462;2022-08-01T04:45:05;150352.41;;;17.62;100.00
48630;BME280;34426;52.180;4.462;2022-08-01T04:47:35;150354.94;;;17.63;100.00
48630;BME280;34426;52.180;4.462;2022-08-01T04:50:06;150371.25;;;17.70;100.00
48630;BME280;34426;52.180;4.462;2022-08-01T04:52:35;150368.72;;;17.69;100.00
48630;BME280;34426;52.180;4.462;2022-08-01T04:55:03;150363.72;;;17.67;100.00
48630;BME280;34426;52.180;4.462;2022-08-01T04:57:31;150346.19;;;17.59;100.00
48630;BME280;34426;52.180;4.462;2022-08-01T04:59:59;150344.91;;;17.59;100.00
48630;BME280;34426;52.180;4.462;2022-08-01T05:02:26;150343.66;;;17.58;100.00
48630;BME280;34426;52.180;4.462;2022-08-01T05:04:56;150331.13;;;17.53;100.00
48630;BME280;34426;52.180;4.462;2022-08-01T05:07:23;150326.13;;;17.51;100.00
48630;BME280;34426;52.180;4.462;2022-08-01T05:09:51;150318.59;;;17.48;100.00
48630;BME280;34426;52.180;4.462;2022-08-01T05:12:19;150318.59;;;17.48;100.00
48630;BME280;34426;52.180;4.462;2022-08-01T05:14:46;150311.06;;;17.45;100.00
48630;BME280;34426;52.180;4.462;2022-08-01T05:17:13;150319.84;;;17.49;100.00
48630;BME280;34426;52.180;4.462;2022-08-01T05:19:41;150312.34;;;17.45;100.00
48630;BME280;34426;52.180;4.462;2022-08-01T05:22:10;150327.38;;;17.52;100.00
48630;BME280;34426;52.180;4.462;2022-08-01T05:24:39;150328.59;;;17.52;100.00
48630;BME280;34426;52.180;4.462;2022-08-01T05:27:07;150324.88;;;17.51;100.00
48630;BME280;34426;52.180;4.462;2022-08-01T05:29:32;150331.13;;;17.53;100.00
48630;BME280;34426;52.180;4.462;2022-08-01T05:31:58;150343.66;;;17.58;100.00
48630;BME280;34426;52.180;4.462;2022-08-01T05:34:23;150349.94;;;17.61;100.00
48630;BME280;34426;52.180;4.462;2022-08-01T05:36:49;150357.44;;;17.64;100.00
48630;BME280;34426;52.180;4.462;2022-08-01T05:39:15;150353.66;;;17.62;100.00
48630;BME280;34426;52.180;4.462;2022-08-01T05:41:41;150361.19;;;17.65;100.00
48630;BME280;34426;52.180;4.462;2022-08-01T05:44:07;150351.19;;;17.61;100.00
48630;BME280;34426;52.180;4.462;2022-08-01T05:46:33;150347.41;;;17.60;100.00
48630;BME280;34426;52.180;4.462;2022-08-01T05:48:59;150338.66;;;17.56;100.00
48630;BME280;34426;52.180;4.462;2022-08-01T05:51:25;150337.41;;;17.56;100.00
48630;BME280;34426;52.180;4.462;2022-08-01T05:53:50;150333.66;;;17.54;100.00
48630;BME280;34426;52.180;4.462;2022-08-01T05:56:17;150338.66;;;17.56;100.00
48630;BME280;34426;52.180;4.462;2022-08-01T05:58:43;150331.13;;;17.53;100.00
48630;BME280;34426;52.180;4.462;2022-08-01T06:01:08;150351.19;;;17.61;100.00
48630;BME280;34426;52.180;4.462;2022-08-01T06:03:34;150361.19;;;17.65;100.00
48630;BME280;34426;52.180;4.462;2022-08-01T06:06:00;150372.47;;;17.70;100.00
48630;BME280;34426;52.180;4.462;2022-08-01T06:08:25;150390.00;;;17.77;100.00
48630;BME280;34426;52.180;4.462;2022-08-01T06:10:51;150402.53;;;17.82;100.00
48630;BME280;34426;52.180;4.462;2022-08-01T06:13:18;150407.53;;;17.84;100.00
48630;BME280;34426;52.180;4.462;2022-08-01T06:15:43;150415.13;;;17.88;100.00
48630;BME280;34426;52.180;4.462;2022-08-01T06:18:09;150422.66;;;17.91;100.00
48630;BME280;34426;52.180;4.462;2022-08-01T06:20:34;150464.00;;;18.08;100.00
48630;BME280;34426;52.180;4.462;2022-08-01T06:22:59;150495.31;;;18.20;100.00
48630;BME280;34426;52.180;4.462;2022-08-01T06:25:25;150555.44;;;18.45;100.00
48630;BME280;34426;52.180;4.462;2022-08-01T06:27:50;150570.50;;;18.51;100.00
48630;BME280;34426;52.180;4.462;2022-08-01T06:30:18;150598.13;;;18.63;100.00
48630;BME280;34426;52.180;4.462;2022-08-01T06:32:43;150590.59;;;18.60;100.00
48630;BME280;34426;52.180;4.462;2022-08-01T06:35:09;150579.28;;;18.55;100.00
48630;BME280;34426;52.180;4.462;2022-08-01T06:37:34;150580.53;;;18.55;100.00
48630;BME280;34426;52.180;4.462;2022-08-01T06:40:00;150573.03;;;18.52;100.00
48630;BME280;34426;52.180;4.462;2022-08-01T06:42:26;150573.03;;;18.52;100.00
48630;BME280;34426;52.180;4.462;2022-08-01T06:44:51;150568.00;;;18.50;100.00
48630;BME280;34426;52.180;4.462;2022-08-01T06:47:18;150569.28;;;18.51;100.00
48630;BME280;34426;52.180;4.462;2022-08-01T06:49:43;150537.91;;;18.38;100.00
48630;BME280;34426;52.180;4.462;2022-08-01T06:52:09;150541.69;;;18.39;100.00
48630;BME280;34426;52.180;4.462;2022-08-01T06:54:34;150568.00;;;18.50;100.00
48630;BME280;34426;52.180;4.462;2022-08-01T06:57:00;150593.06;;;18.61;100.00
48630;BME280;34426;52.180;4.462;2022-08-01T06:59:25;150620.66;;;18.72;100.00
48630;BME280;34426;52.180;4.462;2022-08-01T07:01:50;150631.97;;;18.76;100.00
48630;BME280;34426;52.180;4.462;2022-08-01T07:04:17;150628.19;;;18.75;100.00
48630;BME280;34426;52.180;4.462;2022-08-01T07:06:43;150636.97;;;18.79;100.00
48630;BME280;34426;52.180;4.462;2022-08-01T07:09:08;150649.53;;;18.84;100.00
48630;BME280;34426;52.180;4.462;2022-08-01T07:11:34;150665.84;;;18.90;100.00
48630;BME280;34426;52.180;4.462;2022-08-01T07:13:59;150714.72;;;19.10;100.00
48630;BME280;34426;52.180;4.462;2022-08-01T07:16:25;150748.56;;;19.24;100.00
48630;BME280;34426;52.180;4.462;2022-08-01T07:18:50;150778.66;;;19.37;100.00
48630;BME280;34426;52.180;4.462;2022-08-01T07:21:17;150774.94;;;19.35;100.00
48630;BME280;34426;52.180;4.462;2022-08-01T07:23:42;150784.97;;;19.39;100.00
48630;BME280;34426;52.180;4.462;2022-08-01T07:26:08;150762.41;;;19.30;100.00
48630;BME280;34426;52.180;4.462;2022-08-01T07:28:33;150724.78;;;19.14;100.00
48630;BME280;34426;52.180;4.462;2022-08-01T07:30:59;150728.50;;;19.16;100.00
48630;BME280;34426;52.180;4.462;2022-08-01T07:33:24;150698.41;;;19.04;100.00
48630;BME280;34426;52.180;4.462;2022-08-01T07:35:50;150747.34;;;19.24;100.00
48630;BME280;34426;52.180;4.462;2022-08-01T07:38:16;150748.56;;;19.24;100.00
48630;BME280;34426;52.180;4.462;2022-08-01T07:40:42;150742.31;;;19.22;100.00
48630;BME280;34426;52.180;4.462;2022-08-01T07:43:07;150759.88;;;19.29;100.00
48630;BME280;34426;52.180;4.462;2022-08-01T07:45:33;150782.44;;;19.38;100.00
48630;BME280;34426;52.180;4.462;2022-08-01T07:48:02;150794.97;;;19.43;100.00
48630;BME280;34426;52.180;4.462;2022-08-01T07:50:27;150821.34;;;19.54;100.00
48630;BME280;34426;52.180;4.462;2022-08-01T07:52:53;150817.56;;;19.52;100.00
48630;BME280;34426;52.180;4.462;2022-08-01T07:55:20;150823.81;;;19.55;100.00
48630;BME280;34426;52.180;4.462;2022-08-01T07:57:45;150815.06;;;19.51;100.00
48630;BME280;34426;52.180;4.462;2022-08-01T08:00:11;150811.28;;;19.50;100.00
48630;BME280;34426;52.180;4.462;2022-08-01T08:02:37;150815.06;;;19.51;100.00
48630;BME280;34426;52.180;4.462;2022-08-01T08:05:03;150851.44;;;19.66;100.00
48630;BME280;34426;52.180;4.462;2022-08-01T08:07:28;150857.69;;;19.69;100.00
48630;BME280;34426;52.180;4.462;2022-08-01T08:09:53;150872.81;;;19.75;100.00
48630;BME280;34426;52.180;4.462;2022-08-01T08:12:20;150889.13;;;19.82;100.00
48630;BME280;34426;52.180;4.462;2022-08-01T08:14:46;150861.47;;;19.70;97.15
48630;BME280;34426;52.180;4.462;2022-08-01T08:17:11;150892.88;;;19.83;97.58
48630;BME280;34426;52.180;4.462;2022-08-01T08:19:37;150891.59;;;19.83;95.08
48630;BME280;34426;52.180;4.462;2022-08-01T08:22:02;150920.47;;;19.95;96.60
48630;BME280;34426;52.180;4.462;2022-08-01T08:24:28;150924.22;;;19.96;94.78
48630;BME280;34426;52.180;4.462;2022-08-01T08:26:55;150916.69;;;19.93;94.23
48630;BME280;34426;52.180;4.462;2022-08-01T08:29:22;150919.22;;;19.94;95.12
48630;BME280;34426;52.180;4.462;2022-08-01T08:31:48;150963.09;;;20.12;94.52
48630;BME280;34426;52.180;4.462;2022-08-01T08:34:13;151002.00;;;20.28;95.99
48630;BME280;34426;52.180;4.462;2022-08-01T08:36:39;151039.63;;;20.43;92.41
48630;BME280;34426;52.180;4.462;2022-08-01T08:39:05;151048.41;;;20.47;90.51
48630;BME280;34426;52.180;4.462;2022-08-01T08:41:30;151048.41;;;20.47;92.68
48630;BME280;34426;52.180;4.462;2022-08-01T08:43:56;151117.53;;;20.75;91.11
48630;BME280;34426;52.180;4.462;2022-08-01T08:46:23;151155.19;;;20.91;89.45
48630;BME280;34426;52.180;4.462;2022-08-01T08:48:51;151168.97;;;20.96;86.08
48630;BME280;34426;52.180;4.462;2022-08-01T08:51:17;151216.66;;;21.16;88.47
48630;BME280;34426;52.180;4.462;2022-08-01T08:53:44;151259.31;;;21.33;86.58
48630;BME280;34426;52.180;4.462;2022-08-01T08:56:12;151264.38;;;21.35;83.72
48630;BME280;34426;52.180;4.462;2022-08-01T08:58:38;151270.66;;;21.38;88.36
48630;BME280;34426;52.180;4.462;2022-08-01T09:01:05;151254.31;;;21.31;85.19
48630;BME280;34426;52.180;4.462;2022-08-01T09:03:32;151260.63;;;21.34;82.71
48630;BME280;34426;52.180;4.462;2022-08-01T09:05:57;151256.84;;;21.32;85.38
48630;BME280;34426;52.180;4.462;2022-08-01T09:08:23;151263.09;;;21.35;85.72
48630;BME280;34426;52.180;4.462;2022-08-01T09:10:48;151324.69;;;21.60;85.19
48630;BME280;34426;52.180;4.462;2022-08-01T09:13:14;151334.72;;;21.64;82.77
48630;BME280;34426;52.180;4.462;2022-08-01T09:15:44;151361.13;;;21.75;81.22
48630;BME280;34426;52.180;4.462;2022-08-01T09:18:26;151393.75;;;21.88;79.99
48630;BME280;34426;52.180;4.462;2022-08-01T09:20:57;151423.88;;;22.01;77.14
48630;BME280;34426;52.180;4.462;2022-08-01T09:23:32;151426.41;;;22.02;77.43
48630;BME280;34426;52.180;4.462;2022-08-01T09:25:58;151405.06;;;21.93;81.64
48630;BME280;34426;52.180;4.462;2022-08-01T09:28:27;151389.97;;;21.87;76.85
48630;BME280;34426;52.180;4.462;2022-08-01T09:30:55;151442.75;;;22.08;76.46
48630;BME280;34426;52.180;4.462;2022-08-01T09:33:21;151456.53;;;22.14;75.73
48630;BME280;34426;52.180;4.462;2022-08-01T09:35:54;151511.84;;;22.37;73.42
48630;BME280;34426;52.180;4.462;2022-08-01T09:38:22;151496.81;;;22.30;73.70
48630;BME280;34426;52.180;4.462;2022-08-01T09:40:50;151484.19;;;22.25;72.48
48630;BME280;34426;52.180;4.462;2022-08-01T09:43:16;151542.00;;;22.49;71.37
48630;BME280;34426;52.180;4.462;2022-08-01T09:45:41;151564.63;;;22.58;73.93
48630;BME280;34426;52.180;4.462;2022-08-01T09:48:08;151535.75;;;22.46;73.41
48630;BME280;34426;52.180;4.462;2022-08-01T09:50:39;151503.06;;;22.33;68.92
48630;BME280;34426;52.180;4.462;2022-08-01T09:53:04;151577.19;;;22.63;72.26
48630;BME280;34426;52.180;4.462;2022-08-01T09:55:31;151624.94;;;22.83;69.44
48630;BME280;34426;52.180;4.462;2022-08-01T09:57:57;151646.28;;;22.92;69.46
48630;BME280;34426;52.180;4.462;2022-08-01T10:00:22;151668.94;;;23.01;70.12
48630;BME280;34426;52.180;4.462;2022-08-01T10:02:48;151691.59;;;23.10;70.13
48630;BME280;34426;52.180;4.462;2022-08-01T10:05:13;151701.63;;;23.14;72.51
48630;BME280;34426;52.180;4.462;2022-08-01T10:07:57;151716.72;;;23.20;70.13
48630;BME280;34426;52.180;4.462;2022-08-01T10:10:23;151709.19;;;23.17;70.98
48630;BME280;34426;52.180;4.462;2022-08-01T10:12:51;151661.41;;;22.98;71.52
48630;BME280;34426;52.180;4.462;2022-08-01T10:15:17;151712.97;;;23.19;72.62
48630;BME280;34426;52.180;4.462;2022-08-01T10:17:53;151739.34;;;23.30;75.14
48630;BME280;34426;52.180;4.462;2022-08-01T10:20:20;151754.44;;;23.36;69.97
48630;BME280;34426;52.180;4.462;2022-08-01T10:22:46;151751.91;;;23.35;68.41
48630;BME280;34426;52.180;4.462;2022-08-01T10:25:13;151745.66;;;23.32;66.82
48630;BME280;34426;52.180;4.462;2022-08-01T10:27:42;151751.91;;;23.35;68.14
48630;BME280;34426;52.180;4.462;2022-08-01T10:30:10;151739.34;;;23.30;70.71
48630;BME280;34426;52.180;4.462;2022-08-01T10:32:36;151749.41;;;23.34;72.67
48630;BME280;34426;52.180;4.462;2022-08-01T10:35:03;151779.56;;;23.46;67.91
48630;BME280;34426;52.180;4.462;2022-08-01T10:37:29;151760.69;;;23.38;70.00
48630;BME280;34426;52.180;4.462;2022-08-01T10:39:55;151785.84;;;23.49;70.98
48630;BME280;34426;52.180;4.462;2022-08-01T10:42:21;151764.47;;;23.40;69.26
48630;BME280;34426;52.180;4.462;2022-08-01T10:44:48;151793.38;;;23.52;70.78
48630;BME280;34426;52.180;4.462;2022-08-01T10:47:18;151824.84;;;23.65;69.73
48630;BME280;34426;52.180;4.462;2022-08-01T10:49:51;151841.16;;;23.71;68.66
48630;BME280;34426;52.180;4.462;2022-08-01T10:52:18;151858.78;;;23.78;68.39
48630;BME280;34426;52.180;4.462;2022-08-01T10:54:44;151868.88;;;23.83;66.40
48630;BME280;34426;52.180;4.462;2022-08-01T10:57:09;151871.41;;;23.84;66.58
48630;BME280;34426;52.180;4.462;2022-08-01T10:59:35;151911.59;;;24.00;64.99
48630;BME280;34426;52.180;4.462;2022-08-01T11:02:03;151948.09;;;24.15;67.70
48630;BME280;34426;52.180;4.462;2022-08-01T11:04:40;151934.22;;;24.09;65.05
48630;BME280;34426;52.180;4.462;2022-08-01T11:07:08;151906.59;;;23.98;63.33
48630;BME280;34426;52.180;4.462;2022-08-01T11:09:40;151836.13;;;23.69;65.51
48630;BME280;34426;52.180;4.462;2022-08-01T11:12:09;151922.94;;;24.05;62.60
48630;BME280;34426;52.180;4.462;2022-08-01T11:17:35;151974.47;;;24.26;63.31
48630;BME280;34426;52.180;4.462;2022-08-01T11:20:07;152007.19;;;24.39;64.40
48630;BME280;34426;52.180;4.462;2022-08-01T11:26:10;151988.31;;;24.31;66.11
48630;BME280;34426;52.180;4.462;2022-08-01T11:28:36;151984.53;;;24.30;62.58
48630;BME280;34426;52.180;4.462;2022-08-01T11:31:26;152036.13;;;24.51;62.04
48630;BME280;34426;52.180;4.462;2022-08-01T11:33:52;152037.38;;;24.51;64.95
48630;BME280;34426;52.180;4.462;2022-08-01T11:36:19;152039.84;;;24.52;60.63
48630;BME280;34426;52.180;4.462;2022-08-01T11:38:46;152042.38;;;24.53;60.68
48630;BME280;34426;52.180;4.462;2022-08-01T11:41:13;152014.69;;;24.42;61.55
48630;BME280;34426;52.180;4.462;2022-08-01T11:43:54;152014.69;;;24.42;65.55
48630;BME280;34426;52.180;4.462;2022-08-01T11:46:56;152090.22;;;24.73;62.84
48630;BME280;34426;52.180;4.462;2022-08-01T11:49:43;152132.97;;;24.90;62.64
48630;BME280;34426;52.180;4.462;2022-08-01T11:52:12;152229.88;;;25.30;62.20
48630;BME280;34426;52.180;4.462;2022-08-01T11:54:39;152224.88;;;25.28;59.51
48630;BME280;34426;52.180;4.462;2022-08-01T11:57:06;152253.81;;;25.40;58.89
48630;BME280;34426;52.180;4.462;2022-08-01T11:59:37;152185.84;;;25.12;55.45
48630;BME280;34426;52.180;4.462;2022-08-01T12:02:03;152180.81;;;25.10;55.96
48630;BME280;34426;52.180;4.462;2022-08-01T12:04:44;152141.81;;;24.94;58.38
48630;BME280;34426;52.180;4.462;2022-08-01T12:07:14;152124.19;;;24.87;53.46
48630;BME280;34426;52.180;4.462;2022-08-01T12:09:40;152127.94;;;24.88;55.90
48630;BME280;34426;52.180;4.462;2022-08-01T12:12:06;152205.97;;;25.20;55.93
48630;BME280;34426;52.180;4.462;2022-08-01T12:14:32;152239.97;;;25.34;55.73
48630;BME280;34426;52.180;4.462;2022-08-01T12:16:57;152233.66;;;25.32;56.97
48630;BME280;34426;52.180;4.462;2022-08-01T12:19:24;152237.44;;;25.33;55.45
48630;BME280;34426;52.180;4.462;2022-08-01T12:22:10;152227.41;;;25.29;59.76
48630;BME280;34426;52.180;4.462;2022-08-01T12:24:39;152311.72;;;25.63;58.60
48630;BME280;34426;52.180;4.462;2022-08-01T12:27:05;152294.09;;;25.56;56.33
48630;BME280;34426;52.180;4.462;2022-08-01T12:29:35;152246.25;;;25.37;57.22
48630;BME280;34426;52.180;4.462;2022-08-01T12:32:01;152296.59;;;25.57;56.10
48630;BME280;34426;52.180;4.462;2022-08-01T12:34:26;152265.16;;;25.44;55.91
48630;BME280;34426;52.180;4.462;2022-08-01T12:36:52;152263.88;;;25.44;52.61
48630;BME280;34426;52.180;4.462;2022-08-01T12:39:17;152291.56;;;25.55;55.00
48630;BME280;34426;52.180;4.462;2022-08-01T12:41:45;152348.16;;;25.78;53.31
48630;BME280;34426;52.180;4.462;2022-08-01T12:44:13;152406.13;;;26.02;54.37
48630;BME280;34426;52.180;4.462;2022-08-01T12:46:38;152472.84;;;26.29;51.03
48630;BME280;34426;52.180;4.462;2022-08-01T12:49:04;152530.78;;;26.53;50.86
48630;BME280;34426;52.180;4.462;2022-08-01T12:51:29;152635.28;;;26.95;49.89
48630;BME280;34426;52.180;4.462;2022-08-01T12:53:58;152639.06;;;26.97;48.82